createdAt,value
2022-08-03T00:02:33.002Z,101308.16
2022-08-03T00:05:35.771Z,101305.06
2022-08-03T00:08:40.115Z,101310.13
2022-08-03T00:11:43.233Z,101310.13
2022-08-03T00:14:45.894Z,101304.38
2022-08-03T00:17:53.587Z,101310.94
2022-08-03T00:20:56.949Z,101298.78
2022-08-03T00:23:59.805Z,101294.84
2022-08-03T00:27:02.497Z,101293.53
2022-08-03T00:30:06.274Z,101288.16
2022-08-03T00:33:10.904Z,101283.91
2022-08-03T00:36:13.549Z,101283.09
2022-08-03T00:39:16.409Z,101277.63
2022-08-03T00:42:19.214Z,101276.19
2022-08-03T00:45:23.182Z,101279.78
2022-08-03T00:48:33.772Z,101283.72
2022-08-03T00:51:36.682Z,101279.38
2022-08-03T00:54:40.076Z,101279.28
2022-08-03T00:57:44.056Z,101277.09
2022-08-03T01:00:46.899Z,101264.28
2022-08-03T01:03:50.960Z,101265.13
2022-08-03T01:06:59.313Z,101263.97
2022-08-03T01:10:04.342Z,101261.19
2022-08-03T01:14:04.551Z,101257.81
2022-08-03T01:16:49.282Z,101257.00
2022-08-03T01:20:00.231Z,101255.34
2022-08-03T01:23:23.234Z,101258.94
2022-08-03T01:27:05.182Z,101258.31
2022-08-03T01:30:12.042Z,101253.38
2022-08-03T01:33:18.702Z,101253.88
2022-08-03T01:36:25.692Z,101250.78
2022-08-03T01:39:30.752Z,101252.25
2022-08-03T01:42:35.052Z,101250.28
2022-08-03T01:45:41.182Z,101254.72
2022-08-03T01:48:45.915Z,101248.84
2022-08-03T01:52:00.842Z,101245.41
2022-08-03T01:55:09.314Z,101245.09
2022-08-03T01:58:14.846Z,101247.59
2022-08-03T02:01:21.110Z,101247.59
2022-08-03T02:04:25.559Z,101249.22
2022-08-03T02:07:30.473Z,101238.72
2022-08-03T02:10:36.020Z,101249.22
2022-08-03T02:13:40.151Z,101245.84
2022-08-03T02:16:45.868Z,101253.25
2022-08-03T02:19:48.972Z,101244.72
2022-08-03T02:22:51.871Z,101244.41
2022-08-03T02:26:02.120Z,101246.56
2022-08-03T02:29:11.202Z,101244.09
2022-08-03T02:32:20.556Z,101245.72
2022-08-03T02:35:25.494Z,101245.22
2022-08-03T02:38:37.133Z,101243.56
2022-08-03T02:42:02.204Z,101248.84
2022-08-03T02:45:09.079Z,101244.09
2022-08-03T02:48:18.502Z,101249.03
2022-08-03T02:51:22.745Z,101247.50
2022-08-03T02:54:27.575Z,101243.97
2022-08-03T02:57:34.786Z,101251.31
2022-08-03T03:00:40.362Z,101254.41
2022-08-03T03:03:45.462Z,101248.94
2022-08-03T03:06:52.272Z,101253.38
2022-08-03T03:09:57.793Z,101249.97
2022-08-03T03:13:02.538Z,101252.56
2022-08-03T03:16:07.414Z,101252.25
2022-08-03T03:19:14.244Z,101250.06
2022-08-03T03:22:18.221Z,101251.19
2022-08-03T03:25:22.269Z,101249.53
2022-08-03T03:28:25.544Z,101251.09
2022-08-03T03:31:28.559Z,101246.66
2022-08-03T03:34:33.142Z,101253.06
2022-08-03T03:37:36.033Z,101252.00
2022-08-03T03:40:39.411Z,101251.16
2022-08-03T03:43:42.260Z,101244.78
2022-08-03T03:46:45.411Z,101244.84
2022-08-03T03:49:49.721Z,101253.72
2022-08-03T03:52:55.076Z,101242.00
2022-08-03T03:56:02.358Z,101248.06
2022-08-03T03:59:05.646Z,101244.41
2022-08-03T04:02:09.780Z,101245.41
2022-08-03T04:05:32.378Z,101250.38
2022-08-03T04:08:52.813Z,101243.66
2022-08-03T04:11:59.738Z,101245.34
2022-08-03T04:15:04.511Z,101246.44
2022-08-03T04:18:09.629Z,101249.47
2022-08-03T04:21:16.204Z,101249.22
2022-08-03T04:24:21.779Z,101252.56
2022-08-03T04:27:32.735Z,101254.41
2022-08-03T04:30:38.700Z,101254.41
2022-08-03T04:33:44.868Z,101254.09
2022-08-03T04:36:54.815Z,101252.53
2022-08-03T04:39:59.623Z,101255.59
2022-08-03T04:43:03.539Z,101246.06
2022-08-03T04:46:08.260Z,101244.09
2022-08-03T04:49:11.481Z,101257.44
2022-08-03T04:52:16.673Z,101256.78
2022-08-03T04:55:27.086Z,101257.66
2022-08-03T04:58:29.857Z,101261.00
2022-08-03T05:01:32.743Z,101253.34
2022-08-03T05:04:35.446Z,101254.53
2022-08-03T05:07:39.617Z,101260.28
2022-08-03T05:10:42.722Z,101256.97
2022-08-03T05:13:45.749Z,101260.91
2022-08-03T05:16:48.424Z,101260.19
2022-08-03T05:19:53.684Z,101263.31
2022-08-03T05:22:57.888Z,101262.84
2022-08-03T05:26:00.662Z,101259.38
2022-08-03T05:29:03.400Z,101270.31
2022-08-03T05:32:08.386Z,101270.28
2022-08-03T05:36:00.818Z,101262.25
2022-08-03T05:38:36.285Z,101260.31
2022-08-03T05:41:38.959Z,101264.31
2022-08-03T05:44:42.249Z,101263.78
2022-08-03T05:47:45.598Z,101276.59
2022-08-03T05:50:48.412Z,101276.34
2022-08-03T05:53:52.530Z,101271.53
2022-08-03T05:56:55.389Z,101272.41
2022-08-03T05:59:58.564Z,101271.06
2022-08-03T06:03:01.612Z,101268.47
2022-08-03T06:06:04.497Z,101274.69
2022-08-03T06:09:08.486Z,101279.78
2022-08-03T06:12:14.213Z,101268.16
2022-08-03T06:15:18.656Z,101265.06
2022-08-03T06:18:21.551Z,101262.44
2022-08-03T06:21:24.201Z,101268.44
2022-08-03T06:24:31.907Z,101270.69
2022-08-03T06:27:36.447Z,101275.19
2022-08-03T06:30:40.104Z,101270.56
2022-08-03T06:34:31.244Z,101268.09
2022-08-03T06:37:05.815Z,101266.94
2022-08-03T06:40:13.924Z,101263.78
2022-08-03T06:43:16.881Z,101260.13
2022-08-03T06:46:20.231Z,101267.44
2022-08-03T06:49:23.093Z,101261.66
2022-08-03T06:52:37.907Z,101255.31
2022-08-03T06:55:42.707Z,101267.63
2022-08-03T06:58:47.044Z,101264.91
2022-08-03T07:01:49.810Z,101267.25
2022-08-03T07:04:52.537Z,101262.91
2022-08-03T07:07:56.816Z,101267.81
2022-08-03T07:11:00.866Z,101258.59
2022-08-03T07:14:04.281Z,101259.44
2022-08-03T07:17:11.794Z,101255.84
2022-08-03T07:20:15.246Z,101264.13
2022-08-03T07:23:19.081Z,101264.28
2022-08-03T07:26:23.462Z,101261.53
2022-08-03T07:29:26.396Z,101257.53
2022-08-03T07:32:31.594Z,101262.50
2022-08-03T07:35:34.553Z,101263.22
2022-08-03T07:38:37.841Z,101254.34
2022-08-03T07:41:41.805Z,101254.75
2022-08-03T07:44:44.610Z,101253.97
2022-08-03T07:47:53.411Z,101260.84
2022-08-03T07:50:56.769Z,101258.75
2022-08-03T07:54:00.987Z,101258.38
2022-08-03T07:57:05.211Z,101249.25
2022-08-03T08:00:10.092Z,101263.44
2022-08-03T08:03:13.260Z,101251.56
2022-08-03T08:06:16.614Z,101251.19
2022-08-03T08:09:19.220Z,101252.94
2022-08-03T08:12:23.250Z,101248.81
2022-08-03T08:15:26.351Z,101244.03
2022-08-03T08:18:29.490Z,101257.03
2022-08-03T08:21:53.030Z,101254.59
2022-08-03T08:24:54.912Z,101254.22
2022-08-03T08:28:30.710Z,101251.44
2022-08-03T08:31:24.522Z,101249.78
2022-08-03T08:34:27.156Z,101244.50
2022-08-03T08:37:30.045Z,101248.78
2022-08-03T08:40:32.808Z,101252.41
2022-08-03T08:43:36.822Z,101238.50
2022-08-03T08:46:40.627Z,101244.72
2022-08-03T08:49:58.212Z,101244.38
2022-08-03T08:53:09.747Z,101244.09
2022-08-03T08:56:16.228Z,101245.47
2022-08-03T08:59:21.372Z,101240.69
2022-08-03T09:02:24.092Z,101235.81
2022-08-03T09:05:41.542Z,101235.00
2022-08-03T09:08:49.612Z,101229.50
2022-08-03T09:12:01.192Z,101232.13
2022-08-03T09:15:25.315Z,101228.47
2022-08-03T09:18:32.491Z,101235.41
2022-08-03T09:21:36.335Z,101229.06
2022-08-03T09:24:41.851Z,101236.63
2022-08-03T09:27:45.840Z,101228.09
2022-08-03T09:31:00.835Z,101227.72
2022-08-03T09:34:05.469Z,101230.22
2022-08-03T09:37:14.788Z,101219.66
2022-08-03T09:40:36.204Z,101223.78
2022-08-03T09:43:47.734Z,101225.31
2022-08-03T09:46:53.369Z,101219.75
2022-08-03T09:50:02.253Z,101226.13
2022-08-03T09:53:05.212Z,101222.06
2022-08-03T09:56:35.967Z,101218.19
2022-08-03T09:59:32.384Z,101221.78
2022-08-03T10:02:38.046Z,101212.63
2022-08-03T10:05:44.644Z,101203.44
2022-08-03T10:08:47.502Z,101205.22
2022-08-03T10:11:50.252Z,101200.22
2022-08-03T10:14:53.848Z,101199.38
2022-08-03T10:17:57.796Z,101189.91
2022-08-03T10:21:04.862Z,101197.59
2022-08-03T10:24:10.634Z,101199.53
2022-08-03T10:27:15.963Z,101190.19
2022-08-03T10:30:18.818Z,101190.88
2022-08-03T10:33:50.844Z,101186.34
2022-08-03T10:36:59.792Z,101179.97
2022-08-03T10:40:03.939Z,101181.13
2022-08-03T10:43:10.914Z,101176.63
2022-08-03T10:46:16.971Z,101175.38
2022-08-03T10:49:35.115Z,101177.53
2022-08-03T10:52:55.568Z,101172.84
2022-08-03T10:56:16.973Z,101158.81
2022-08-03T11:00:03.066Z,101166.97
2022-08-03T11:03:11.165Z,101166.81
2022-08-03T11:06:20.218Z,101161.47
2022-08-03T11:09:22.872Z,101161.97
2022-08-03T11:12:29.851Z,101159.09
2022-08-03T11:15:35.954Z,101141.13
2022-08-03T11:18:57.340Z,101142.34
2022-08-03T11:22:01.401Z,101144.44
2022-08-03T11:25:04.571Z,101148.44
2022-08-03T11:28:27.976Z,101142.25
2022-08-03T11:31:50.296Z,101140.31
2022-08-03T11:35:08.881Z,101146.47
2022-08-03T11:38:13.436Z,101148.25
2022-08-03T11:41:44.920Z,101145.91
2022-08-03T11:44:48.453Z,101149.59
2022-08-03T11:47:55.356Z,101143.25
2022-08-03T11:50:58.210Z,101140.44
2022-08-03T11:54:04.508Z,101140.97
2022-08-03T11:57:07.380Z,101132.16
2022-08-03T12:00:24.124Z,101136.88
2022-08-03T12:03:34.998Z,101141.94
2022-08-03T12:06:51.745Z,101143.34
2022-08-03T12:10:11.009Z,101131.50
2022-08-03T12:14:05.774Z,101129.63
2022-08-03T12:16:36.482Z,101130.53
2022-08-03T12:19:46.373Z,101129.25
2022-08-03T12:22:48.986Z,101130.44
2022-08-03T12:25:53.104Z,101122.41
2022-08-03T12:28:58.323Z,101134.31
2022-08-03T12:32:01.257Z,101111.81
2022-08-03T12:35:05.902Z,101110.13
2022-08-03T12:38:08.639Z,101122.16
2022-08-03T12:41:14.769Z,101122.19
2022-08-03T12:44:17.433Z,101123.75
2022-08-03T12:47:20.564Z,101115.56
2022-08-03T12:50:28.645Z,101105.63
2022-08-03T12:53:31.296Z,101095.38
2022-08-03T12:56:35.671Z,101095.09
2022-08-03T12:59:42.466Z,101091.91
2022-08-03T13:03:38.322Z,101098.47
2022-08-03T13:06:25.786Z,101099.31
2022-08-03T13:09:29.024Z,101099.53
2022-08-03T13:12:33.176Z,101094.72
2022-08-03T13:15:38.808Z,101097.53
2022-08-03T13:18:52.597Z,101093.06
2022-08-03T13:22:04.272Z,101090.75
2022-08-03T13:25:08.474Z,101091.59
2022-08-03T13:28:14.533Z,101095.59
2022-08-03T13:31:17.591Z,101092.06
2022-08-03T13:34:23.482Z,101082.06
2022-08-03T13:37:27.474Z,101078.53
2022-08-03T13:40:36.757Z,101081.72
2022-08-03T13:43:45.832Z,101078.56
2022-08-03T13:46:49.798Z,101085.88
2022-08-03T13:49:59.525Z,101080.03
2022-08-03T13:53:03.324Z,101075.94
2022-08-03T13:56:06.027Z,101070.16
2022-08-03T13:59:11.170Z,101074.59
2022-08-03T14:02:13.880Z,101068.44
2022-08-03T14:05:16.780Z,101068.88
2022-08-03T14:08:19.503Z,101065.44
2022-08-03T14:11:22.158Z,101066.31
2022-08-03T14:14:26.370Z,101066.66
2022-08-03T14:17:42.405Z,101064.50
2022-08-03T14:20:56.366Z,101055.50
2022-08-03T14:24:00.038Z,101050.28
2022-08-03T14:27:09.064Z,101049.03
2022-08-03T14:30:15.048Z,101046.63
2022-08-03T14:33:17.784Z,101046.50
2022-08-03T14:36:20.608Z,101041.03
2022-08-03T14:39:23.427Z,101039.13
2022-08-03T14:42:26.469Z,101048.06
2022-08-03T14:45:30.506Z,101039.97
2022-08-03T14:50:29.595Z,101046.88
2022-08-03T14:51:56.085Z,101036.94
2022-08-03T14:54:59.093Z,101039.97
2022-08-03T14:58:05.740Z,101038.78
2022-08-03T15:02:02.903Z,101031.69
2022-08-03T15:04:46.671Z,101035.59
2022-08-03T15:07:49.537Z,101028.09
2022-08-03T15:10:53.314Z,101031.50
2022-08-03T15:13:56.146Z,101027.88
2022-08-03T15:17:00.541Z,101027.69
2022-08-03T15:20:27.780Z,101025.84
2022-08-03T15:23:26.364Z,101024.81
2022-08-03T15:26:35.345Z,101029.53
2022-08-03T15:30:07.874Z,101019.34
2022-08-03T15:33:06.876Z,101018.44
2022-08-03T15:36:09.698Z,101021.28
2022-08-03T15:39:12.457Z,101017.28
2022-08-03T15:42:15.276Z,101019.13
2022-08-03T15:45:20.350Z,101015.81
2022-08-03T15:48:26.427Z,101017.47
2022-08-03T15:51:29.875Z,101017.47
2022-08-03T15:54:32.502Z,101012.16
2022-08-03T15:59:04.293Z,101011.47
2022-08-03T16:00:58.803Z,101007.00
2022-08-03T16:04:03.045Z,101010.28
2022-08-03T16:07:07.349Z,101014.34
2022-08-03T16:10:17.712Z,101001.75
2022-08-03T16:13:20.483Z,101003.81
2022-08-03T16:16:23.263Z,101006.22
2022-08-03T16:19:28.185Z,100996.50
2022-08-03T16:22:31.070Z,101005.88
2022-08-03T16:25:35.743Z,101011.13
2022-08-03T16:28:39.054Z,101005.50
2022-08-03T16:31:51.128Z,101001.44
2022-08-03T16:34:55.753Z,100996.94
2022-08-03T16:37:58.467Z,100999.81
2022-08-03T16:41:01.279Z,100999.00
2022-08-03T16:44:08.047Z,101002.28
2022-08-03T16:47:22.134Z,100999.84
2022-08-03T16:50:26.784Z,100998.22
2022-08-03T16:53:33.773Z,100991.72
2022-08-03T16:56:52.352Z,100997.00
2022-08-03T16:59:56.244Z,100995.78
2022-08-03T17:03:04.395Z,101003.88
2022-08-03T17:06:17.099Z,101003.47
2022-08-03T17:09:24.766Z,101003.88
2022-08-03T17:12:28.377Z,101004.25
2022-08-03T17:15:38.404Z,100997.28
2022-08-03T17:18:58.550Z,101004.19
2022-08-03T17:22:12.885Z,101007.38
2022-08-03T17:25:22.142Z,101014.28
2022-08-03T17:28:52.144Z,101010.19
2022-08-03T17:32:06.542Z,101013.41
2022-08-03T17:35:12.320Z,101022.22
2022-08-03T17:38:22.773Z,101008.81
2022-08-03T17:41:26.496Z,101008.75
2022-08-03T17:44:38.743Z,101011.56
2022-08-03T17:47:57.305Z,101013.53
2022-08-03T17:51:04.151Z,101012.66
2022-08-03T17:54:18.022Z,101024.38
2022-08-03T17:57:30.018Z,101018.22
2022-08-03T18:01:57.500Z,101016.94
2022-08-03T18:04:42.714Z,101017.66
2022-08-03T18:07:49.680Z,101014.25
2022-08-03T18:11:14.409Z,101018.16
2022-08-03T18:14:25.365Z,101025.75
2022-08-03T18:17:55.063Z,101030.91
2022-08-03T18:20:55.347Z,101030.72
2022-08-03T18:23:59.456Z,101030.53
2022-08-03T18:27:04.846Z,101032.88
2022-08-03T18:30:11.937Z,101035.16
2022-08-03T18:34:20.037Z,101028.53
2022-08-03T18:36:39.888Z,101037.66
2022-08-03T18:39:50.115Z,101030.19
2022-08-03T18:42:56.869Z,101030.41
2022-08-03T18:46:04.352Z,101030.22
2022-08-03T18:49:12.868Z,101038.53
2022-08-03T18:52:18.706Z,101031.44
2022-08-03T18:55:33.770Z,101033.22
2022-08-03T18:58:47.827Z,101036.69
2022-08-03T19:01:59.929Z,101035.25
2022-08-03T19:05:09.104Z,101040.69
2022-08-03T19:08:17.826Z,101038.13
2022-08-03T19:11:27.843Z,101049.94
2022-08-03T19:14:42.451Z,101053.31
2022-08-03T19:17:53.392Z,101055.03
2022-08-03T19:20:56.984Z,101054.34
2022-08-03T19:24:05.603Z,101056.97
2022-08-03T19:27:13.012Z,101057.50
2022-08-03T19:30:33.306Z,101064.06
2022-08-03T19:33:56.013Z,101064.75
2022-08-03T19:36:59.865Z,101061.59
2022-08-03T19:40:02.764Z,101056.16
2022-08-03T19:43:11.180Z,101058.22
2022-08-03T19:46:22.528Z,101063.66
2022-08-03T19:50:05.059Z,101063.44
2022-08-03T19:53:00.733Z,101067.59
2022-08-03T19:56:06.241Z,101062.50
2022-08-03T19:59:13.142Z,101057.03
2022-08-03T20:02:26.435Z,101056.88
2022-08-03T20:05:30.557Z,101056.63
2022-08-03T20:08:51.598Z,101058.53
2022-08-03T20:11:55.069Z,101058.25
2022-08-03T20:14:59.324Z,101049.63
2022-08-03T20:18:03.426Z,101047.78
2022-08-03T20:21:14.773Z,101055.66
2022-08-03T20:24:23.777Z,101049.00
2022-08-03T20:27:30.208Z,101054.41
2022-08-03T20:30:33.242Z,101056.56
2022-08-03T20:33:48.377Z,101059.16
2022-08-03T20:37:00.675Z,101047.84
2022-08-03T20:40:03.997Z,101048.56
2022-08-03T20:43:06.878Z,101050.41
2022-08-03T20:46:31.132Z,101044.59
2022-08-03T20:49:46.318Z,101043.91
2022-08-03T20:52:59.159Z,101053.75
2022-08-03T20:56:06.070Z,101049.53
2022-08-03T20:59:15.044Z,101059.72
2022-08-03T21:02:19.860Z,101055.50
2022-08-03T21:05:51.373Z,101057.84
2022-08-03T21:09:03.822Z,101052.47
2022-08-03T21:12:15.455Z,101053.50
2022-08-03T21:16:11.205Z,101054.13
2022-08-03T21:18:52.093Z,101063.22
2022-08-03T21:21:56.810Z,101063.94
2022-08-03T21:25:04.610Z,101057.03
2022-08-03T21:28:08.531Z,101055.63
2022-08-03T21:31:12.043Z,101059.00
2022-08-03T21:34:16.511Z,101056.91
2022-08-03T21:37:20.572Z,101061.09
2022-08-03T21:40:23.503Z,101053.09
2022-08-03T21:43:26.330Z,101055.66
2022-08-03T21:46:33.843Z,101056.09
2022-08-03T21:50:05.455Z,101042.28
2022-08-03T21:53:02.168Z,101042.72
2022-08-03T21:56:08.454Z,101045.75
2022-08-03T21:59:17.557Z,101053.09
2022-08-03T22:02:24.044Z,101053.31
2022-08-03T22:05:42.911Z,101059.28
2022-08-03T22:08:49.268Z,101051.88
2022-08-03T22:11:54.050Z,101058.06
2022-08-03T22:15:00.256Z,101054.59
2022-08-03T22:18:05.407Z,101059.59
2022-08-03T22:21:10.006Z,101057.84
2022-08-03T22:24:16.573Z,101057.19
2022-08-03T22:27:34.107Z,101062.69
2022-08-03T22:30:37.571Z,101061.38
2022-08-03T22:33:40.918Z,101070.31
2022-08-03T22:36:44.009Z,101076.16
2022-08-03T22:39:48.344Z,101061.38
2022-08-03T22:42:52.319Z,101065.84
2022-08-03T22:46:09.193Z,101074.13
2022-08-03T22:49:15.119Z,101071.53
2022-08-03T22:52:18.107Z,101071.88
2022-08-03T22:55:25.270Z,101076.66
2022-08-03T22:58:27.925Z,101076.84
2022-08-03T23:01:37.825Z,101079.00
2022-08-03T23:04:42.764Z,101076.38
2022-08-03T23:07:46.124Z,101073.63
2022-08-03T23:10:51.854Z,101077.09
2022-08-03T23:13:55.075Z,101070.19
2022-08-03T23:17:03.915Z,101077.97
2022-08-03T23:20:09.114Z,101071.41
2022-08-03T23:23:12.277Z,101072.25
2022-08-03T23:26:19.011Z,101068.97
2022-08-03T23:29:22.925Z,101074.91
2022-08-03T23:32:26.870Z,101075.72
2022-08-03T23:36:18.787Z,101065.69
2022-08-03T23:39:06.872Z,101068.47
2022-08-03T23:42:12.249Z,101064.69
2022-08-03T23:45:18.730Z,101069.31
2022-08-03T23:48:21.354Z,101065.56
2022-08-03T23:51:33.232Z,101069.19
2022-08-03T23:54:44.242Z,101062.91
2022-08-03T23:58:02.865Z,101065.03
